首页
METAR-TAF:

METAR-TAF

机场 :

克里斯蒂亚诺·罗纳尔多机场

丰沙尔, 馬德拉群岛, 葡萄牙

纬度: 32-41-52N, 经度: 016-46-28W, 海拔: 59米

当前天气观测

该预报发布于19分钟前的23:30 UTC
风速4节,风向西
温度 18°C
湿度 83%
气压 1016 hPa
能见度10公里或以上
少量云层高于1300英尺
少量云层高于1600英尺, 积雨云.

METAR: LPMA 212330Z 27004KT 9999 FEW013 FEW016CB 18/15 Q1016

时间: 00:49 (23:49 UTC)

预报

该预报发布于49分钟前的23:00 UTC
预报有效从22日的 00点(UTC)到 22日的 24点(UTC)
风速5节,风向多变
能见度10公里或以上
散云层高于1500英尺
少量云层高于1800英尺, 积雨云.
短暂存在
从 22日的 00点(UTC)到 22日的 24点(UTC)
能見度: 8000
多云层高于1300英尺
少量云层高于1600英尺, 积雨云.
阵雨
几率 30% :
短暂存在
从 22日的 00点(UTC)到 22日的 24点(UTC)
风速10节,风向多变,有时为25节阵风
能見度: 3000
散云层高于1600英尺, 积雨云.
雷暴, 雨
成为
从 22日的 09点(UTC)到 22日的 12点(UTC)
风速10节,风向西南

TAF: LPMA 212300Z 2200/2224 VRB05KT 9999 SCT015 FEW018CB TEMPO 2200/2224 8000 SHRA BKN013 FEW016CB PROB30 TEMPO 2200/2224 VRB10G25KT 3000 TSRA SCT016CB BECMG 2209/2212 22010KT

超过4000个机场的气象观测和天气预报(METAR&TAF报告)。

可查询的气象台以黄色和红色小点在地图上表示。

将鼠标移到小点上方,可查看气象台名称。

然后点击查看天气观测和预报。

如需切换地图:点击带黑十字的绿色按钮放大地图;点击带横线的绿色按钮缩小地图;或者点击绿色箭头查看邻近地区的地图。


METAR-TAF: